Terminal Aerodrome Forecast
Issued by NWS

Home | Current Version | Previous Version | Text Only | Print | Product List | Glossary On
Versions: 1 2 3 4 5 6 7 8 9 10 11 12 13 14
000
FTUS45 KSLC 302333
TAF36U
TAF
K36U 302333Z 3100/3124 11005KT P6SM FEW120 SCT150
     FM310100 25009KT P6SM VCSH SCT090 BKN120
     FM310400 VRB03KT P6SM SCT130
     FM310700 15005KT P6SM VCSH SCT090 BKN130
     FM311100 13004KT P6SM SCT130
     FM312000 26007KT P6SM SCT090 BKN120=

USA.gov is the U.S. government's official web portal to all federal, state and local government web resources and services.